Airfield :
LOGIN :

Register | Disclaimer

   EN    FR    IT 

 










Legend :    VFR   Marginal VFR   IFR   Intensive IFR   Very Intensive IFR
Visi :
Ceiling :
>= 8 km
>= 3000ft
5 to 8 km
1000 to 3000 ft
1500m to 5 km
500 to 1000 ft
800 to 1500m
200 to 500 ft
< 800m
< 200 ft
Symbols :   Thunderstorms  Fog  Heavy snow  Heavy precipitations  Wind > 20 kt
SIGMETs :     Misc.  Thunderstorms  Icing  Turbulence  Mountain Waves  Volcanic Ashes







- Airport Elevation : 1959 ft
- IATA code : HOQ


EDQM - Hof Plauen

CURRENT METAR :
  • 231450Z 25007KT 9999 FEW010 SCT022 BKN028 07/05 Q1018

EXPIRED METARs :
  • 231420Z 25005KT 3600 -RA BR FEW010 SCT017 BKN020 07/05 Q1018 REDZ
  • 231350Z 25006KT 5000 DZ BR BKN010 OVC027 07/05 Q1018
  • 231320Z 25010KT 9999 SCT026 BKN048 OVC096 07/05 Q1018
  • 231250Z 26014KT 9999 SCT011 BKN096 08/05 Q1018
  • 231220Z 26012KT 9999 BKN008 OVC011 07/05 Q1018

TAF TAF EDQM
Valid from the 23 at 15:00 until the 24 at 00:00 UTC


231400Z 2315/2324 26015G25KT 9999 SCT012 BKN030
TEMPO 2315/2324 4000 -DZ BKN006
BECMG 2315/2318 27008KT
No reported NOTAMs for that airfield.



MET'MAP, your aeronautical weather chart ! - Copyright ORBIFLY December 2007 - Disclaimer

ORBIFLY MET'MAP TEAM :

Programming & Development : Alexandra Zaïnal
Concept & Development : Baudouin d'Aumeries
Co-Development & Prog : Marc-Olivier Méhu
Technical & hardware support : Manuel Goepfert

Contact : metmap@orbifly.com




SOURCES & CREDITS :

   NOAA